Aeroporto :
LOGIN :

Iscrizione | Disclaimer

   EN    FR    IT 

 










Sommario :    VFR   VFR Marginale   IFR   IFR Intensivo   IFR Molto Intensivo
Visibilità : 
Base nubi : 
>= 8 km
>= 3000ft
5 / 8 km
1000 / 3000 ft
1500m / 5 km
500 / 1000 ft
800 / 1500m
200 / 500 ft
< 800m
< 200 ft
Simboli :   Temporali  Nebbia  Neve Forte  Precipitazioni Forti  Vento > 20 kt
SIGMETs :   Varie  Temporali  Ghiacco  Turbolenza  Onda orograficha  Ceneri Vulcaniche






- Altitudine del aeroporto : 699 ft
- Codice IATA : PAD


EDLP - Paderborn Lippstadt

ULTIMO METAR :
  • 180320Z 25016G28KT 220V280 9999 -RA BKN024 BKN042 06/03 Q1017

METARs OBSOLETI :
  • 180250Z 24016KT 9999 -RA FEW025 06/03 Q1016
  • 180220Z 24017KT 9999 -RA BKN023 06/03 Q1016
  • 180150Z 25014KT 220V320 9999 -DZ BKN023 BKN027 06/03 Q1016
  • 180120Z 24018G28KT 9999 -RA FEW022 BKN025 07/03 Q1015
  • 180050Z 24017G28KT 9999 -RA FEW016 BKN023 OVC027 07/03 Q1015

TAF AMD TAF EDLP
Valido dal 18 a 00 ore il 19 a 00 ore UTC


180054Z 1800/1824 24015G25KT 9999 BKN025
TEMPO 1800/1806 25020G30KT SHRA BKN015CB
PROB30
TEMPO 1800/1802 TSRA
PROB30
TEMPO 1811/1819 25020G30KT SHRA SCT025CB
TEMPO 1822/1824 26020G35KT SHRA BKN015CB



MetMap, La meteo Aeronautica in un colpo d'occhio ! - Copyright ORBIFLY Dicembre 2007 - Disclaimer

ORBIFLY MET'MAP TEAM :

Programmazione e sviluppo : Alexandra Zaïnal
Concezione : Baudouin d'Aumeries
Aiuto per la programmazione : Marc-Olivier Méhu
Supporto tecnico e logistico : Manuel Goepfert
Aiuto per la traduzione : Arnaldo La Scala

Contatto : metmap@orbifly.com




FONTI E CREDITI :

   NOAA